Stony Rapids Airport
CYSF : now visible

Airfield :











YOU CAN JOIN US ON...

 
LOGIN :

Register | Disclaimer

   EN    FR    IT 

 









Legend :    VFR   Marginal VFR   IFR   Intensive IFR   Very Intensive IFR
Visi :
Ceiling :
>= 8 km
>= 3000ft
5 to 8 km
1000 to 3000 ft
1500m to 5 km
500 to 1000 ft
800 to 1500m
200 to 500 ft
< 800m
< 200 ft
Symbols :   Thunderstorms  Fog  Heavy snow  Heavy precipitations  Wind > 20 kt






- Airport Elevation : 805 ft
- IATA code : YSF


CYSF - Stony Rapids

CURRENT METAR :
  • 061623Z AUTO 25005KT 3SM HZ CLR M25/M28 A2996 RMK SLP181

EXPIRED METARs :
  • 061602Z AUTO 27004KT 7SM CLR M25/M28 A2996 RMK SLP182
  • 061552Z AUTO 24004KT 4SM HZ CLR M25/M28 A2997 RMK SLP183
  • 061500Z AUTO 28008KT 9SM CLR M23/M26 A2995 RMK SLP178
  • 061400Z AUTO 28007KT 9SM BKN140 M22/M25 A2994 RMK SLP173

TAF TAF CYSF
Valid from the 06 at 12:00 until the 07 at 00:00 UTC


061138Z 0612/0624 28005KT P6SM BKN070
TEMPO 0612/0620 SCT070
FM062000 VRB03KT P6SM SKC RMK FCST BASED ON AUTO OBS. NXT FCST BY 061800Z



MET'MAP, your aeronautical weather chart ! - Copyright ORBIFLY December 2007 - Disclaimer

ORBIFLY MET'MAP TEAM :

Programming & Development : Alexandra Zaïnal
Concept & original design : Baudouin d'Aumeries
Assistance for programming : Marc-Olivier Méhu
Technical & hardware support : Manuel Goepfert

Contact : metmap@orbifly.com




SOURCES & CREDITS :

   NOAA       Earth
Advisory